Siloam Springs, AR

16:51 CST je la 26an de februaro 2015 (GMT -0600)
Gentry AR Weather | Change Station
CLOSE
Current Station
Personaj Veter-Stacioj
Location: Gentry, AR
Alteco: 1204 ft
Najbaraj veter-stacioj

Elev 1204 ft 36.25 °N, 94.49 °W | Updated 5 minutes ago

Clear
Sennuba
27.1 °F
Sentas kiel 20 °F
N
7.0
Vento Varianta Vento from NNOk
Gusts 15.0 mej/h

hodiaŭ
High -- | Low -- °F
--% Ebla precip.
hieraŭ
High -- | Low -- °F
Precip. -- co
6:52 AM 6:09 PM
Kreskanta Lunĝibo, 63% visible
Aerpremo 30.35 co
Vidodistanco 10.0 mejloj
Nuboj Sennuba
Venta
kvazaŭtemperaturo
20 °F
Rosopunkto 9 °F
Humido 46%
Pluvokvanto 0.00 co
Neĝprofundo Not available.
UV 1 out of 12
Pollen 6.70 out of 12
Aerkvalito Not available.
Flu Activity Not available.
METAR KSLG 262235Z AUTO 34011G15KT 10SM CLR M02/M14 A3035 RMK AO1

More Conditions Fewer Conditions

Aerpremo 30.35 co
Vidodistanco 10.0 mejloj
Nuboj Sennuba
Venta
kvazaŭtemperaturo
20 °F
Rosopunkto 9 °F
Humido 46%
Pluvokvanto 0.00 co
Neĝprofundo Not available.
UV 1 out of 12
Pollen 6.70 out of 12
Aerkvalito Not available.
Flu Activity Not available.
METAR KSLG 262235Z AUTO 34011G15KT 10SM CLR M02/M14 A3035 RMK AO1

More Conditions Fewer Conditions

10-Day Weather Forecast

Almanac

Astronomio

Feb. 26, 2015 Leviĝo Subiro
Aktuala tempo
Civila krepusko
Naŭtika krepusko
Astronomia krepusko
Luno
Daŭro de videbla lumo
Daŭro de tago
Tomorrow will be .
, % of the Moon is Illuminated

Hodiaŭaj ekstremaĵoj

State Highs State Lows

Community

WunderPhotos

Upload Photos

1,800,546 photos uploaded!

WunderBlogs® & News

Nearby

Aerkvalito

  Aerkvalito Aerkvalita indico Poluanto
Not available.

Neĝa profundeco

Station Depth Alteco

Earthquake Activity

Urbo Distance Mag. Time & Date
Minimum magnitude displayed is 2.5.

Coastal Water Temperatures

Loko Temperaturo

Najbaraj veter-stacioj